Craig G — WDB5332 — position and weather

sailwx.info

Track history (hours):
 
Tides and Currents Weather Stations Pressure Air Temp Water Temp Dewpoint Dewpoint Depression Visibility Wind Speed Wind Dir Waves Ship Positions

Craig G

Owner: San Diego Towing & Marine Services,Inc., San Diego, CA. More information available from US FCC via Universal Licensing System and Coast Guard Vessel Documentation Center.

Last reported at 2014-Oct-31 09:33 UTC. Time now 2014-Oct-31 10:01 UTC.
Position N 33°13' W 117°24'.

Length 28 m; draft 2 m.

Type: Other ship. MMSI: 366908460.

Date/timePositionNaut miles runAvg speedWind from/ knotsBaromVisibWave heightAir tempDewpointWater temp
2014-Oct-31 09:33N 33°13' W 117°24'0 0.0
2014-Oct-31 08:33N 33°13' W 117°24'0 0.0
2014-Oct-31 07:34N 33°13' W 117°24'0 0.0
2014-Oct-31 06:33N 33°13' W 117°24'0 0.0
2014-Oct-31 05:33N 33°13' W 117°24'0 0.0
2014-Oct-31 04:33N 33°13' W 117°24'0 0.0
2014-Oct-31 03:33N 33°13' W 117°24'0 0.0
2014-Oct-31 02:33N 33°13' W 117°24'4 4.4
2014-Oct-31 01:33N 33°13' W 117°29'4 4.4
2014-Oct-31 00:33N 33°13' W 117°24'0 0.1
2014-Oct-30 23:33N 33°13' W 117°24'0 0.0
2014-Oct-30 22:33N 33°13' W 117°24'4 4.4
2014-Oct-30 21:33N 33°13' W 117°29'2 2.0
2014-Oct-30 20:34N 33°14' W 117°27'3 3.4
2014-Oct-30 19:33N 33°12' W 117°24'7 6.5
2014-Oct-30 18:33N 33°14' W 117°31'6 6.1
2014-Oct-30 17:33N 33°13' W 117°24'3 2.9
2014-Oct-30 16:34N 33°13' W 117°28'3 2.9
2014-Oct-30 15:33N 33°15' W 117°29'5 5.2
2014-Oct-30 14:33N 33°13' W 117°24'0 0.0
2014-Oct-30 13:33N 33°13' W 117°24'0 0.0
2014-Oct-30 12:33N 33°13' W 117°24'3 3.0
2014-Oct-30 11:33N 33°10' W 117°23'1616.3
2014-Oct-30 10:33N 32°54' W 117°20'1616.2
2014-Oct-30 09:33N 32°38' W 117°14'6 5.6
2014-Oct-30 08:33N 32°42' W 117°09'0 0.0
2014-Oct-30 07:33N 32°42' W 117°09'7 7.0
2014-Oct-30 06:33N 32°38' W 117°16'1716.6
2014-Oct-30 05:33N 32°54' W 117°20'1716.7
2014-Oct-30 04:33N 33°11' W 117°24'4 4.3
2014-Oct-30 03:33N 33°13' W 117°28'0 0.3
2014-Oct-30 02:33N 33°13' W 117°28'0 0.4
2014-Oct-30 01:33N 33°13' W 117°28'2 1.6
2014-Oct-30 00:33N 33°12' W 117°27'2 2.0
2014-Oct-29 23:33N 33°13' W 117°29'0 0.2
2014-Oct-29 22:33N 33°12' W 117°29'1 0.6
2014-Oct-29 21:33N 33°12' W 117°29'2 2.5
2014-Oct-29 20:33N 33°12' W 117°26'1 1.3
2014-Oct-29 19:33N 33°14' W 117°26'2 2.0
2014-Oct-29 18:33N 33°15' W 117°28'1 0.8
2014-Oct-29 17:33N 33°15' W 117°29'1 0.9
2014-Oct-29 16:33N 33°15' W 117°29'4 3.7
2014-Oct-29 15:33N 33°12' W 117°28'1 0.8
2014-Oct-29 14:33N 33°11' W 117°28'3 3.4
2014-Oct-29 13:33N 33°12' W 117°24'0 0.4
2014-Oct-29 12:34N 33°13' W 117°24'0 0.0
2014-Oct-29 11:33N 33°13' W 117°24'0 0.0
2014-Oct-29 10:33N 33°13' W 117°24'0 0.0
2014-Oct-29 09:34N 33°13' W 117°24'0 0.0
2014-Oct-29 08:34N 33°13' W 117°24'0 0.0
2014-Oct-29 07:34N 33°13' W 117°24'0 0.0
2014-Oct-29 06:34N 33°13' W 117°24'0 0.0
2014-Oct-29 05:33N 33°13' W 117°24'0 0.0
2014-Oct-29 04:33N 33°13' W 117°24'0 0.0
2014-Oct-29 03:33N 33°13' W 117°24'0 0.0
2014-Oct-29 02:33N 33°13' W 117°24'3 2.8
2014-Oct-29 01:33N 33°13' W 117°27'3 2.8
2014-Oct-29 00:33N 33°13' W 117°24'0 0.2
2014-Oct-28 23:33N 33°12' W 117°24'5 5.0
2014-Oct-28 22:33N 33°13' W 117°30'0 0.1
2014-Oct-28 21:33N 33°13' W 117°30'4 3.7
2014-Oct-28 20:33N 33°12' W 117°26'3 2.7
2014-Oct-28 19:33N 33°14' W 117°28'4 4.2
2014-Oct-28 18:34N 33°12' W 117°24'3 2.9
2014-Oct-28 17:33N 33°13' W 117°27'3 3.1
2014-Oct-28 16:33N 33°15' W 117°29'6 5.5
2014-Oct-28 15:33N 33°12' W 117°24'2 2.4
2014-Oct-28 14:33N 33°13' W 117°27'2 2.3
2014-Oct-28 13:34N 33°12' W 117°24'0 0.3
2014-Oct-28 12:33N 33°13' W 117°24'0 0.0
2014-Oct-28 11:34N 33°13' W 117°24'0 0.0
2014-Oct-28 10:33N 33°13' W 117°24'0 0.0
2014-Oct-28 09:33N 33°13' W 117°24'0 0.0
2014-Oct-28 08:33N 33°13' W 117°24'1515.4
2014-Oct-28 07:34N 32°57' W 117°21'1616.2
2014-Oct-28 06:33N 32°42' W 117°17'7 6.9
2014-Oct-28 05:33N 32°42' W 117°09'0 0.1
2014-Oct-28 04:33N 32°42' W 117°09'7 6.5
2014-Oct-28 03:33N 32°41' W 117°17'1616.1
2014-Oct-28 02:33N 32°56' W 117°22'1616.2
2014-Oct-28 01:33N 33°11' W 117°28'3 3.1
2014-Oct-28 00:33N 33°13' W 117°24'0 0.4
2014-Oct-27 23:33N 33°12' W 117°24'4 4.0
2014-Oct-27 22:34N 33°13' W 117°28'0 0.3
2014-Oct-27 21:34N 33°13' W 117°28'4 3.6
2014-Oct-27 20:33N 33°12' W 117°24'4 3.7
2014-Oct-27 19:33N 33°15' W 117°27'2 2.5
2014-Oct-27 18:33N 33°14' W 117°30'3 2.6
2014-Oct-27 17:33N 33°13' W 117°27'3 2.6
2014-Oct-27 16:33N 33°13' W 117°24'0 0.0
2014-Oct-27 15:33N 33°13' W 117°24'0 0.0
2014-Oct-27 14:33N 33°13' W 117°24'0 0.0
2014-Oct-27 13:33N 33°13' W 117°24'0 0.0
2014-Oct-27 12:33N 33°13' W 117°24'0 0.0
2014-Oct-27 11:33N 33°13' W 117°24'0 0.0
2014-Oct-27 10:33N 33°13' W 117°24'0 0.0
2014-Oct-27 09:33N 33°13' W 117°24'0 0.0
2014-Oct-27 08:33N 33°13' W 117°24'0 0.0
2014-Oct-27 07:33N 33°13' W 117°24'5 5.1
2014-Oct-27 06:33N 33°15' W 117°29'5 5.1
2014-Oct-27 05:33N 33°13' W 117°24'0 0.0
2014-Oct-27 04:33N 33°13' W 117°24'0 0.0
2014-Oct-27 03:33N 33°13' W 117°24'0 0.0
2014-Oct-27 02:33N 33°13' W 117°24'0 0.0
2014-Oct-27 01:33N 33°13' W 117°24'0 0.0
2014-Oct-27 00:33N 33°13' W 117°24'0 0.1
2014-Oct-26 23:33N 33°13' W 117°24'0 0.4
2014-Oct-26 22:31N 33°12' W 117°24'7 7.5
2014-Oct-26 21:33N 33°15' W 117°32'7 6.6
2014-Oct-26 20:33N 33°13' W 117°24'0 0.0
2014-Oct-26 19:33N 33°13' W 117°24'0 0.0
2014-Oct-26 18:33N 33°13' W 117°24'3 2.8
2014-Oct-26 17:34N 33°11' W 117°27'2 2.2
2014-Oct-26 16:33N 33°13' W 117°27'0 0.1
2014-Oct-26 15:34N 33°13' W 117°27'1212.3
2014-Oct-26 14:34N 33°01' W 117°24'1414.1
2014-Oct-26 13:33N 32°47' W 117°21'10 9.8
2014-Oct-26 12:33N 32°39' W 117°14'5 4.5
2014-Oct-26 11:33N 32°42' W 117°09'0 0.0
2014-Oct-26 10:33N 32°42' W 117°09'0 0.0
2014-Oct-26 09:31N 32°42' W 117°09'0 0.0
2014-Oct-26 08:29N 32°42' W 117°09'0 0.0
2014-Oct-26 07:33N 32°42' W 117°09'3 3.3
2014-Oct-26 06:34N 32°43' W 117°13'6 5.8
2014-Oct-26 05:34N 32°45' W 117°19'1514.9
2014-Oct-26 04:34N 33°00' W 117°22'1211.9
2014-Oct-26 03:33N 33°12' W 117°24'0 0.4
2014-Oct-26 02:34N 33°12' W 117°24'9 9.3
2014-Oct-26 01:33N 33°13' W 117°35'2 1.9
2014-Oct-26 00:34N 33°13' W 117°33'8 7.6
2014-Oct-25 23:33N 33°13' W 117°24'0 0.0
2014-Oct-25 22:33N 33°13' W 117°24'0 0.0
2014-Oct-25 21:33N 33°13' W 117°24'0 0.0
2014-Oct-25 20:33N 33°13' W 117°24'0 0.0
2014-Oct-25 19:33N 33°13' W 117°24'6 5.8
2014-Oct-25 18:34N 33°14' W 117°31'7 6.8
2014-Oct-25 17:34N 33°14' W 117°39'0 0.2
2014-Oct-25 16:33N 33°15' W 117°39'1312.7
2014-Oct-25 15:32N 33°12' W 117°24'0 0.0
2014-Oct-25 14:33N 33°12' W 117°24'9 9.3
2014-Oct-25 13:33N 33°13' W 117°35'3 2.9
2014-Oct-25 12:33N 33°13' W 117°31'6 6.0
2014-Oct-25 11:33N 33°13' W 117°24'0 0.0
2014-Oct-25 10:33N 33°13' W 117°24'0 0.0
2014-Oct-25 09:33N 33°13' W 117°24'0 0.0
2014-Oct-25 08:33N 33°13' W 117°24'0 0.0
2014-Oct-25 07:33N 33°13' W 117°24'0 0.0
2014-Oct-25 06:33N 33°13' W 117°24'0 0.0
2014-Oct-25 05:33N 33°13' W 117°24'0 0.0
2014-Oct-25 04:33N 33°13' W 117°24'0 0.0
2014-Oct-25 03:33N 33°13' W 117°24'0 0.0
2014-Oct-25 02:33N 33°13' W 117°24'7 6.6
2014-Oct-25 01:33N 33°15' W 117°31'3 2.6
2014-Oct-25 00:33N 33°13' W 117°31'6 6.1
2014-Oct-24 23:33N 33°12' W 117°24'1010.3
2014-Oct-24 22:33N 33°14' W 117°36'9 9.4
2014-Oct-24 21:33N 33°12' W 117°25'8 8.2
2014-Oct-24 20:33N 33°14' W 117°34'4 4.0
2014-Oct-24 19:33N 33°15' W 117°39'6 5.8
2014-Oct-24 18:33N 33°14' W 117°32'7 7.3
2014-Oct-24 17:33N 33°12' W 117°24'7 6.7
2014-Oct-24 16:33N 33°14' W 117°32'2 2.3
2014-Oct-24 15:33N 33°14' W 117°34'9 8.6
2014-Oct-24 14:33N 33°12' W 117°24'1413.8
2014-Oct-24 13:33N 33°13' W 117°40'7 7.3
2014-Oct-24 12:33N 33°13' W 117°32'3 3.3
2014-Oct-24 11:33N 33°14' W 117°28'4 3.7
2014-Oct-24 10:33N 33°12' W 117°24'0 0.4
2014-Oct-24 09:34N 33°13' W 117°24'0 0.0
2014-Oct-24 08:34N 33°13' W 117°24'0 0.0
2014-Oct-24 07:33N 33°13' W 117°24'0 0.0
2014-Oct-24 06:34N 33°13' W 117°24'0 0.0
2014-Oct-24 05:34N 33°13' W 117°24'0 0.0
2014-Oct-24 04:34N 33°13' W 117°24'0 0.0
2014-Oct-24 03:34N 33°13' W 117°24'5 5.5
2014-Oct-24 02:33N 33°16' W 117°29'3 3.4
2014-Oct-24 01:33N 33°13' W 117°28'10 9.6
2014-Oct-24 00:33N 33°15' W 117°39'9 8.9
2014-Oct-23 23:34N 33°15' W 117°28'2 1.8
2014-Oct-23 22:34N 33°14' W 117°30'1 1.4
2014-Oct-23 21:34N 33°14' W 117°32'7 6.5
2014-Oct-23 20:33N 33°13' W 117°24'4 4.3
2014-Oct-23 19:34N 33°13' W 117°29'9 8.8
2014-Oct-23 18:33N 33°16' W 117°39'0 0.4
2014-Oct-23 17:33N 33°16' W 117°40'7 6.7
2014-Oct-23 16:33N 33°15' W 117°32'7 7.3
2014-Oct-23 15:33N 33°12' W 117°24'0 0.0
2014-Oct-23 14:33N 33°12' W 117°24'6 5.8
2014-Oct-23 13:33N 33°13' W 117°31'9 9.3
2014-Oct-23 12:33N 33°15' W 117°41'1515.1
2014-Oct-23 11:33N 33°12' W 117°24'0 0.4
2014-Oct-23 10:33N 33°13' W 117°24'0 0.0
2014-Oct-21 11:08N 33°13' W 117°24'0 0.0
2014-Oct-21 10:33N 33°13' W 117°24'  
Track history (hours):
 
Tides and Currents Weather Stations Pressure Air Temp Water Temp Dewpoint Dewpoint Depression Visibility Wind Speed Wind Dir Waves Ship Positions

Craig G

Owner: San Diego Towing & Marine Services,Inc., San Diego, CA. More information available from US FCC via Universal Licensing System and Coast Guard Vessel Documentation Center.

Last reported at 2014-Oct-31 09:33 UTC. Time now 2014-Oct-31 10:01 UTC.
Position N 33°13' W 117°24'.

Length 28 m; draft 2 m.

Type: Other ship. MMSI: 366908460.

Date/timePositionNaut miles runAvg speedWind from/ knotsBaromVisibWave heightAir tempDewpointWater temp
2014-Oct-31 09:33N 33°13' W 117°24'0 0.0
2014-Oct-31 08:33N 33°13' W 117°24'0 0.0
2014-Oct-31 07:34N 33°13' W 117°24'0 0.0
2014-Oct-31 06:33N 33°13' W 117°24'0 0.0
2014-Oct-31 05:33N 33°13' W 117°24'0 0.0
2014-Oct-31 04:33N 33°13' W 117°24'0 0.0
2014-Oct-31 03:33N 33°13' W 117°24'0 0.0
2014-Oct-31 02:33N 33°13' W 117°24'4 4.4
2014-Oct-31 01:33N 33°13' W 117°29'4 4.4
2014-Oct-31 00:33N 33°13' W 117°24'0 0.1
2014-Oct-30 23:33N 33°13' W 117°24'0 0.0
2014-Oct-30 22:33N 33°13' W 117°24'4 4.4
2014-Oct-30 21:33N 33°13' W 117°29'2 2.0
2014-Oct-30 20:34N 33°14' W 117°27'3 3.4
2014-Oct-30 19:33N 33°12' W 117°24'7 6.5
2014-Oct-30 18:33N 33°14' W 117°31'6 6.1
2014-Oct-30 17:33N 33°13' W 117°24'3 2.9
2014-Oct-30 16:34N 33°13' W 117°28'3 2.9
2014-Oct-30 15:33N 33°15' W 117°29'5 5.2
2014-Oct-30 14:33N 33°13' W 117°24'0 0.0
2014-Oct-30 13:33N 33°13' W 117°24'0 0.0
2014-Oct-30 12:33N 33°13' W 117°24'3 3.0
2014-Oct-30 11:33N 33°10' W 117°23'1616.3
2014-Oct-30 10:33N 32°54' W 117°20'1616.2
2014-Oct-30 09:33N 32°38' W 117°14'6 5.6
2014-Oct-30 08:33N 32°42' W 117°09'0 0.0
2014-Oct-30 07:33N 32°42' W 117°09'7 7.0
2014-Oct-30 06:33N 32°38' W 117°16'1716.6
2014-Oct-30 05:33N 32°54' W 117°20'1716.7
2014-Oct-30 04:33N 33°11' W 117°24'4 4.3
2014-Oct-30 03:33N 33°13' W 117°28'0 0.3
2014-Oct-30 02:33N 33°13' W 117°28'0 0.4
2014-Oct-30 01:33N 33°13' W 117°28'2 1.6
2014-Oct-30 00:33N 33°12' W 117°27'2 2.0
2014-Oct-29 23:33N 33°13' W 117°29'0 0.2
2014-Oct-29 22:33N 33°12' W 117°29'1 0.6
2014-Oct-29 21:33N 33°12' W 117°29'2 2.5
2014-Oct-29 20:33N 33°12' W 117°26'1 1.3
2014-Oct-29 19:33N 33°14' W 117°26'2 2.0
2014-Oct-29 18:33N 33°15' W 117°28'1 0.8
2014-Oct-29 17:33N 33°15' W 117°29'1 0.9
2014-Oct-29 16:33N 33°15' W 117°29'4 3.7
2014-Oct-29 15:33N 33°12' W 117°28'1 0.8
2014-Oct-29 14:33N 33°11' W 117°28'3 3.4
2014-Oct-29 13:33N 33°12' W 117°24'0 0.4
2014-Oct-29 12:34N 33°13' W 117°24'0 0.0
2014-Oct-29 11:33N 33°13' W 117°24'0 0.0
2014-Oct-29 10:33N 33°13' W 117°24'0 0.0
2014-Oct-29 09:34N 33°13' W 117°24'0 0.0
2014-Oct-29 08:34N 33°13' W 117°24'0 0.0
2014-Oct-29 07:34N 33°13' W 117°24'0 0.0
2014-Oct-29 06:34N 33°13' W 117°24'0 0.0
2014-Oct-29 05:33N 33°13' W 117°24'0 0.0
2014-Oct-29 04:33N 33°13' W 117°24'0 0.0
2014-Oct-29 03:33N 33°13' W 117°24'0 0.0
2014-Oct-29 02:33N 33°13' W 117°24'3 2.8
2014-Oct-29 01:33N 33°13' W 117°27'3 2.8
2014-Oct-29 00:33N 33°13' W 117°24'0 0.2
2014-Oct-28 23:33N 33°12' W 117°24'5 5.0
2014-Oct-28 22:33N 33°13' W 117°30'0 0.1
2014-Oct-28 21:33N 33°13' W 117°30'4 3.7
2014-Oct-28 20:33N 33°12' W 117°26'3 2.7
2014-Oct-28 19:33N 33°14' W 117°28'4 4.2
2014-Oct-28 18:34N 33°12' W 117°24'3 2.9
2014-Oct-28 17:33N 33°13' W 117°27'3 3.1
2014-Oct-28 16:33N 33°15' W 117°29'6 5.5
2014-Oct-28 15:33N 33°12' W 117°24'2 2.4
2014-Oct-28 14:33N 33°13' W 117°27'2 2.3
2014-Oct-28 13:34N 33°12' W 117°24'0 0.3
2014-Oct-28 12:33N 33°13' W 117°24'0 0.0
2014-Oct-28 11:34N 33°13' W 117°24'0 0.0
2014-Oct-28 10:33N 33°13' W 117°24'0 0.0
2014-Oct-28 09:33N 33°13' W 117°24'0 0.0
2014-Oct-28 08:33N 33°13' W 117°24'1515.4
2014-Oct-28 07:34N 32°57' W 117°21'1616.2
2014-Oct-28 06:33N 32°42' W 117°17'7 6.9
2014-Oct-28 05:33N 32°42' W 117°09'0 0.1
2014-Oct-28 04:33N 32°42' W 117°09'7 6.5
2014-Oct-28 03:33N 32°41' W 117°17'1616.1
2014-Oct-28 02:33N 32°56' W 117°22'1616.2
2014-Oct-28 01:33N 33°11' W 117°28'3 3.1
2014-Oct-28 00:33N 33°13' W 117°24'0 0.4
2014-Oct-27 23:33N 33°12' W 117°24'4 4.0
2014-Oct-27 22:34N 33°13' W 117°28'0 0.3
2014-Oct-27 21:34N 33°13' W 117°28'4 3.6
2014-Oct-27 20:33N 33°12' W 117°24'4 3.7
2014-Oct-27 19:33N 33°15' W 117°27'2 2.5
2014-Oct-27 18:33N 33°14' W 117°30'3 2.6
2014-Oct-27 17:33N 33°13' W 117°27'3 2.6
2014-Oct-27 16:33N 33°13' W 117°24'0 0.0
2014-Oct-27 15:33N 33°13' W 117°24'0 0.0
2014-Oct-27 14:33N 33°13' W 117°24'0 0.0
2014-Oct-27 13:33N 33°13' W 117°24'0 0.0
2014-Oct-27 12:33N 33°13' W 117°24'0 0.0
2014-Oct-27 11:33N 33°13' W 117°24'0 0.0
2014-Oct-27 10:33N 33°13' W 117°24'0 0.0
2014-Oct-27 09:33N 33°13' W 117°24'0 0.0
2014-Oct-27 08:33N 33°13' W 117°24'0 0.0
2014-Oct-27 07:33N 33°13' W 117°24'5 5.1
2014-Oct-27 06:33N 33°15' W 117°29'5 5.1
2014-Oct-27 05:33N 33°13' W 117°24'0 0.0
2014-Oct-27 04:33N 33°13' W 117°24'0 0.0
2014-Oct-27 03:33N 33°13' W 117°24'0 0.0
2014-Oct-27 02:33N 33°13' W 117°24'0 0.0
2014-Oct-27 01:33N 33°13' W 117°24'0 0.0
2014-Oct-27 00:33N 33°13' W 117°24'0 0.1
2014-Oct-26 23:33N 33°13' W 117°24'0 0.4
2014-Oct-26 22:31N 33°12' W 117°24'7 7.5
2014-Oct-26 21:33N 33°15' W 117°32'7 6.6
2014-Oct-26 20:33N 33°13' W 117°24'0 0.0
2014-Oct-26 19:33N 33°13' W 117°24'0 0.0
2014-Oct-26 18:33N 33°13' W 117°24'3 2.8
2014-Oct-26 17:34N 33°11' W 117°27'2 2.2
2014-Oct-26 16:33N 33°13' W 117°27'0 0.1
2014-Oct-26 15:34N 33°13' W 117°27'1212.3
2014-Oct-26 14:34N 33°01' W 117°24'1414.1
2014-Oct-26 13:33N 32°47' W 117°21'10 9.8
2014-Oct-26 12:33N 32°39' W 117°14'5 4.5
2014-Oct-26 11:33N 32°42' W 117°09'0 0.0
2014-Oct-26 10:33N 32°42' W 117°09'0 0.0
2014-Oct-26 09:31N 32°42' W 117°09'0 0.0
2014-Oct-26 08:29N 32°42' W 117°09'0 0.0
2014-Oct-26 07:33N 32°42' W 117°09'3 3.3
2014-Oct-26 06:34N 32°43' W 117°13'6 5.8
2014-Oct-26 05:34N 32°45' W 117°19'1514.9
2014-Oct-26 04:34N 33°00' W 117°22'1211.9
2014-Oct-26 03:33N 33°12' W 117°24'0 0.4
2014-Oct-26 02:34N 33°12' W 117°24'9 9.3
2014-Oct-26 01:33N 33°13' W 117°35'2 1.9
2014-Oct-26 00:34N 33°13' W 117°33'8 7.6
2014-Oct-25 23:33N 33°13' W 117°24'0 0.0
2014-Oct-25 22:33N 33°13' W 117°24'0 0.0
2014-Oct-25 21:33N 33°13' W 117°24'0 0.0
2014-Oct-25 20:33N 33°13' W 117°24'0 0.0
2014-Oct-25 19:33N 33°13' W 117°24'6 5.8
2014-Oct-25 18:34N 33°14' W 117°31'7 6.8
2014-Oct-25 17:34N 33°14' W 117°39'0 0.2
2014-Oct-25 16:33N 33°15' W 117°39'1312.7
2014-Oct-25 15:32N 33°12' W 117°24'0 0.0
2014-Oct-25 14:33N 33°12' W 117°24'9 9.3
2014-Oct-25 13:33N 33°13' W 117°35'3 2.9
2014-Oct-25 12:33N 33°13' W 117°31'6 6.0
2014-Oct-25 11:33N 33°13' W 117°24'0 0.0
2014-Oct-25 10:33N 33°13' W 117°24'0 0.0
2014-Oct-25 09:33N 33°13' W 117°24'0 0.0
2014-Oct-25 08:33N 33°13' W 117°24'0 0.0
2014-Oct-25 07:33N 33°13' W 117°24'0 0.0
2014-Oct-25 06:33N 33°13' W 117°24'0 0.0
2014-Oct-25 05:33N 33°13' W 117°24'0 0.0
2014-Oct-25 04:33N 33°13' W 117°24'0 0.0
2014-Oct-25 03:33N 33°13' W 117°24'0 0.0
2014-Oct-25 02:33N 33°13' W 117°24'7 6.6
2014-Oct-25 01:33N 33°15' W 117°31'3 2.6
2014-Oct-25 00:33N 33°13' W 117°31'6 6.1
2014-Oct-24 23:33N 33°12' W 117°24'1010.3
2014-Oct-24 22:33N 33°14' W 117°36'9 9.4
2014-Oct-24 21:33N 33°12' W 117°25'8 8.2
2014-Oct-24 20:33N 33°14' W 117°34'4 4.0
2014-Oct-24 19:33N 33°15' W 117°39'6 5.8
2014-Oct-24 18:33N 33°14' W 117°32'7 7.3
2014-Oct-24 17:33N 33°12' W 117°24'7 6.7
2014-Oct-24 16:33N 33°14' W 117°32'2 2.3
2014-Oct-24 15:33N 33°14' W 117°34'9 8.6
2014-Oct-24 14:33N 33°12' W 117°24'1413.8
2014-Oct-24 13:33N 33°13' W 117°40'7 7.3
2014-Oct-24 12:33N 33°13' W 117°32'3 3.3
2014-Oct-24 11:33N 33°14' W 117°28'4 3.7
2014-Oct-24 10:33N 33°12' W 117°24'0 0.4
2014-Oct-24 09:34N 33°13' W 117°24'0 0.0
2014-Oct-24 08:34N 33°13' W 117°24'0 0.0
2014-Oct-24 07:33N 33°13' W 117°24'0 0.0
2014-Oct-24 06:34N 33°13' W 117°24'0 0.0
2014-Oct-24 05:34N 33°13' W 117°24'0 0.0
2014-Oct-24 04:34N 33°13' W 117°24'0 0.0
2014-Oct-24 03:34N 33°13' W 117°24'5 5.5
2014-Oct-24 02:33N 33°16' W 117°29'3 3.4
2014-Oct-24 01:33N 33°13' W 117°28'10 9.6
2014-Oct-24 00:33N 33°15' W 117°39'9 8.9
2014-Oct-23 23:34N 33°15' W 117°28'2 1.8
2014-Oct-23 22:34N 33°14' W 117°30'1 1.4
2014-Oct-23 21:34N 33°14' W 117°32'7 6.5
2014-Oct-23 20:33N 33°13' W 117°24'4 4.3
2014-Oct-23 19:34N 33°13' W 117°29'9 8.8
2014-Oct-23 18:33N 33°16' W 117°39'0 0.4
2014-Oct-23 17:33N 33°16' W 117°40'7 6.7
2014-Oct-23 16:33N 33°15' W 117°32'7 7.3
2014-Oct-23 15:33N 33°12' W 117°24'0 0.0
2014-Oct-23 14:33N 33°12' W 117°24'6 5.8
2014-Oct-23 13:33N 33°13' W 117°31'9 9.3
2014-Oct-23 12:33N 33°15' W 117°41'1515.1
2014-Oct-23 11:33N 33°12' W 117°24'0 0.4
2014-Oct-23 10:33N 33°13' W 117°24'0 0.0
2014-Oct-21 11:08N 33°13' W 117°24'0 0.0
2014-Oct-21 10:33N 33°13' W 117°24'  

Dump ship's entire track history